Time;durP1;ratioP1;P1;durP2;ratioP2;P2;SDS_P1;SDS_P2;PMS_P1;PMS_P2;Temp;Humidity;BMP_temperature;BMP_pressure;BME280_temperature;BME280_humidity;BME280_pressure;Samples;Min_cycle;Max_cycle;Signal;HPM_P1;HPM_P2
2024/01/16 04:00:53;;;;;;;10.32;1.88;;;0.30;99.90;;;;;;6197227;22;20021;-74
2024/01/16 04:03:18;;;;;;;10.75;1.00;;;0.30;99.90;;;;;;6250333;23;20016;-72
2024/01/16 04:05:44;;;;;;;10.90;0.98;;;0.30;99.90;;;;;;6253009;23;20492;-73
2024/01/16 04:08:10;;;;;;;6.32;1.00;;;0.20;99.90;;;;;;6249393;23;20008;-73
2024/01/16 04:10:35;;;;;;;7.55;0.88;;;0.20;99.90;;;;;;6246087;23;20048;-76
2024/01/16 04:13:02;;;;;;;7.68;0.80;;;0.20;99.90;;;;;;6218927;23;20430;-73
2024/01/16 04:15:28;;;;;;;9.80;1.30;;;0.30;99.90;;;;;;6246133;23;20311;-75
2024/01/16 04:17:54;;;;;;;10.65;1.13;;;0.30;99.90;;;;;;6219019;23;20024;-75
2024/01/16 04:20:19;;;;;;;14.02;1.30;;;0.30;99.90;;;;;;6245453;22;20016;-75
2024/01/16 04:22:45;;;;;;;11.02;1.17;;;0.30;99.90;;;;;;6220082;23;20452;-74
2024/01/16 04:25:11;;;;;;;12.75;0.85;;;0.30;99.90;;;;;;6220842;23;20035;-73
2024/01/16 04:27:36;;;;;;;15.18;1.88;;;0.30;99.90;;;;;;6195732;23;20016;-74
2024/01/16 04:30:02;;;;;;;7.13;1.27;;;0.30;99.90;;;;;;6220729;23;20047;-73
2024/01/16 04:32:28;;;;;;;7.55;0.90;;;0.30;99.90;;;;;;6220605;23;20023;-73
2024/01/16 04:34:54;;;;;;;19.45;1.70;;;0.30;99.90;;;;;;6195655;23;20012;-75
2024/01/16 04:37:19;;;;;;;8.60;1.48;;;0.30;99.90;;;;;;6220553;23;20020;-72
2024/01/16 04:39:45;;;;;;;8.70;1.27;;;0.40;99.90;;;;;;6247357;23;20445;-74
2024/01/16 04:42:11;;;;;;;7.03;1.33;;;0.40;99.90;;;;;;6220607;23;20012;-72
2024/01/16 04:44:37;;;;;;;9.65;1.70;;;0.30;99.90;;;;;;6247751;23;20062;-76
2024/01/16 04:47:02;;;;;;;9.77;1.17;;;0.30;99.90;;;;;;6220527;23;20361;-74
2024/01/16 04:49:28;;;;;;;6.18;0.70;;;0.40;99.90;;;;;;6195411;23;20015;-76
2024/01/16 04:51:54;;;;;;;10.18;0.93;;;0.30;99.90;;;;;;6220492;23;20106;-72
2024/01/16 04:54:19;;;;;;;6.80;1.08;;;0.30;99.90;;;;;;6247511;23;20130;-73
2024/01/16 04:56:45;;;;;;;6.70;0.95;;;0.40;99.90;;;;;;6247383;23;20016;-76
2024/01/16 04:59:11;;;;;;;6.90;1.05;;;0.40;99.90;;;;;;6247198;23;20434;-75
2024/01/16 05:01:37;;;;;;;5.57;0.85;;;0.40;99.90;;;;;;6247098;22;20012;-74
2024/01/16 05:04:03;;;;;;;5.93;1.27;;;0.40;99.90;;;;;;6248540;23;20019;-72
2024/01/16 05:06:29;;;;;;;6.55;1.02;;;0.50;99.90;;;;;;6220394;23;20345;-75
2024/01/16 05:08:55;;;;;;;10.98;1.80;;;0.40;99.90;;;;;;6220377;23;20016;-74
2024/01/16 05:11:21;;;;;;;9.05;0.88;;;0.40;99.90;;;;;;6220008;23;20032;-75
2024/01/16 05:13:46;;;;;;;9.75;1.52;;;0.40;99.90;;;;;;6220151;23;20032;-74
2024/01/16 05:16:13;;;;;;;9.82;1.10;;;0.40;99.90;;;;;;6247428;23;20061;-74
2024/01/16 05:18:41;;;;;;;8.65;0.98;;;0.40;99.90;;;;;;6220263;23;20054;-72
2024/01/16 05:21:07;;;;;;;5.38;0.80;;;0.40;99.90;;;;;;6220076;23;20016;-74
2024/01/16 05:23:33;;;;;;;7.32;0.85;;;0.50;99.90;;;;;;6220349;23;20137;-74
2024/01/16 05:25:58;;;;;;;5.00;0.80;;;0.50;99.90;;;;;;6247078;23;20519;-72
2024/01/16 05:28:24;;;;;;;5.13;1.13;;;0.50;99.90;;;;;;6247308;23;20016;-76
2024/01/16 05:30:49;;;;;;;7.40;1.00;;;0.50;99.90;;;;;;6219882;23;20019;-74
2024/01/16 05:33:15;;;;;;;6.35;0.80;;;0.50;99.90;;;;;;6219433;23;20070;-73
2024/01/16 05:35:41;;;;;;;9.00;1.17;;;0.50;99.90;;;;;;6220034;23;20338;-75
2024/01/16 05:38:07;;;;;;;4.18;0.55;;;0.50;99.90;;;;;;6220330;23;20058;-76
2024/01/16 05:40:32;;;;;;;4.13;0.70;;;0.50;99.90;;;;;;6247112;22;20463;-73
2024/01/16 05:42:58;;;;;;;8.50;0.70;;;0.50;99.90;;;;;;6247330;23;20011;-76
2024/01/16 05:45:23;;;;;;;6.60;0.77;;;0.60;99.90;;;;;;6219930;23;20012;-74
2024/01/16 05:47:49;;;;;;;6.43;0.60;;;0.60;99.90;;;;;;6219790;23;20019;-73
2024/01/16 05:50:18;;;;;;;11.60;0.98;;;0.60;99.90;;;;;;6219905;22;20012;-73
2024/01/16 05:52:43;;;;;;;9.98;0.90;;;0.60;99.90;;;;;;6219987;23;20047;-75
2024/01/16 05:55:10;;;;;;;5.60;0.88;;;0.60;99.90;;;;;;6219965;23;20023;-74
2024/01/16 05:57:37;;;;;;;7.82;0.77;;;0.70;99.90;;;;;;6247186;23;20368;-75
2024/01/16 06:00:03;;;;;;;6.07;1.10;;;0.70;99.90;;;;;;6246610;23;20464;-74
2024/01/16 06:02:29;;;;;;;8.15;1.08;;;0.70;99.90;;;;;;6246466;22;20446;-74
2024/01/16 06:04:55;;;;;;;6.20;0.70;;;0.70;99.90;;;;;;6246939;23;20016;-74
2024/01/16 06:07:21;;;;;;;6.18;0.65;;;0.60;99.90;;;;;;6219953;23;20016;-74
2024/01/16 06:09:46;;;;;;;3.03;0.82;;;0.70;99.90;;;;;;6247369;23;20012;-73
2024/01/16 06:12:12;;;;;;;4.82;0.85;;;0.60;99.90;;;;;;6246916;22;20012;-73
2024/01/16 06:14:38;;;;;;;4.88;0.68;;;0.60;99.90;;;;;;6219913;23;20023;-72
2024/01/16 06:17:06;;;;;;;3.95;0.60;;;0.60;99.90;;;;;;6247088;23;20012;-74
2024/01/16 06:19:32;;;;;;;10.48;0.88;;;0.60;99.90;;;;;;6246940;23;20020;-75
2024/01/16 06:21:58;;;;;;;5.63;0.90;;;0.60;99.90;;;;;;6219532;23;20044;-75
2024/01/16 06:24:24;;;;;;;7.28;0.93;;;0.60;99.90;;;;;;6219777;23;20066;-74
2024/01/16 06:26:50;;;;;;;8.65;0.90;;;0.60;99.90;;;;;;6246898;23;20008;-75
2024/01/16 06:29:15;;;;;;;5.22;0.80;;;0.60;99.90;;;;;;6246771;23;20019;-75
2024/01/16 06:31:41;;;;;;;5.38;0.90;;;0.60;99.90;;;;;;6219645;23;20476;-74
2024/01/16 06:34:07;;;;;;;4.45;0.85;;;0.60;99.90;;;;;;6246594;23;20012;-74
2024/01/16 06:36:32;;;;;;;1.58;0.50;;;0.60;99.90;;;;;;6219602;23;20054;-75
2024/01/16 06:38:58;;;;;;;13.75;1.75;;;0.60;99.90;;;;;;6246267;23;20012;-73
2024/01/16 06:41:24;;;;;;;3.95;1.00;;;0.60;99.90;;;;;;6219426;23;20020;-76
2024/01/16 06:43:49;;;;;;;8.68;1.00;;;0.60;99.90;;;;;;6220538;23;20012;-75
2024/01/16 06:46:15;;;;;;;7.70;1.13;;;0.60;99.90;;;;;;6246584;23;20426;-74
2024/01/16 06:48:41;;;;;;;7.10;0.80;;;0.60;99.90;;;;;;6246325;23;20430;-73
2024/01/16 06:51:07;;;;;;;7.88;0.90;;;0.60;99.90;;;;;;6246643;22;20016;-76
2024/01/16 06:53:33;;;;;;;4.80;1.08;;;0.60;99.90;;;;;;6247378;23;20012;-75
2024/01/16 06:55:59;;;;;;;5.65;0.85;;;0.60;99.90;;;;;;6219417;23;20508;-74
2024/01/16 06:58:24;;;;;;;3.72;1.10;;;0.70;99.90;;;;;;6219093;23;20182;-74
2024/01/16 07:00:50;;;;;;;3.88;1.00;;;0.70;99.90;;;;;;6245673;22;20441;-75
2024/01/16 07:03:17;;;;;;;4.00;0.70;;;0.70;99.90;;;;;;6246102;23;20012;-75
2024/01/16 07:05:43;;;;;;;9.13;1.10;;;0.70;99.90;;;;;;6246443;23;20008;-74
2024/01/16 07:08:09;;;;;;;10.23;1.30;;;0.80;99.90;;;;;;6246313;23;20039;-77
2024/01/16 07:10:35;;;;;;;4.60;0.75;;;0.90;99.90;;;;;;6246445;22;20062;-76
2024/01/16 07:13:02;;;;;;;6.78;1.00;;;0.90;99.90;;;;;;6246079;23;20036;-77
2024/01/16 07:15:27;;;;;;;10.40;1.23;;;0.90;99.90;;;;;;6219020;23;20418;-76
2024/01/16 07:17:53;;;;;;;4.45;1.42;;;0.90;99.90;;;;;;6244823;23;20079;-75
2024/01/16 07:20:19;;;;;;;10.57;1.27;;;0.90;99.90;;;;;;6218627;22;20016;-77
2024/01/16 07:22:45;;;;;;;3.75;1.10;;;0.90;99.90;;;;;;6219276;23;20523;-73
2024/01/16 07:25:11;;;;;;;7.22;1.77;;;0.90;99.90;;;;;;6246452;23;20006;-75
2024/01/16 07:27:37;;;;;;;8.65;1.30;;;1.00;99.90;;;;;;6219233;23;20022;-76
2024/01/16 07:30:06;;;;;;;10.77;1.33;;;0.90;99.90;;;;;;6219170;23;20087;-75
2024/01/16 07:32:32;;;;;;;6.70;1.20;;;0.90;99.90;;;;;;6218929;23;20016;-76
2024/01/16 07:34:58;;;;;;;6.35;1.88;;;0.90;99.90;;;;;;6219849;23;20012;-76
2024/01/16 07:37:24;;;;;;;7.65;2.22;;;0.90;99.90;;;;;;6219333;23;20452;-75
2024/01/16 07:39:50;;;;;;;9.13;2.05;;;0.80;99.90;;;;;;6246722;23;20084;-75
2024/01/16 07:42:15;;;;;;;8.48;2.17;;;0.80;99.90;;;;;;6219169;23;20345;-75
2024/01/16 07:44:41;;;;;;;11.90;2.20;;;0.80;99.90;;;;;;6219781;23;20019;-73
2024/01/16 07:47:07;;;;;;;13.77;2.55;;;0.80;99.90;;;;;;6221447;23;20016;-76
2024/01/16 07:49:33;;;;;;;9.40;2.10;;;0.80;99.90;;;;;;6221611;23;20080;-77
2024/01/16 07:51:59;;;;;;;9.35;2.60;;;0.90;99.90;;;;;;6219753;23;20382;-72
2024/01/16 07:54:25;;;;;;;8.30;2.15;;;0.90;99.90;;;;;;6219328;23;20040;-74
2024/01/16 07:56:51;;;;;;;14.02;3.60;;;0.90;99.90;;;;;;6246784;23;20008;-75
2024/01/16 07:59:17;;;;;;;6.60;2.80;;;0.90;99.90;;;;;;6248415;23;20080;-77
2024/01/16 08:01:43;;;;;;;10.90;3.15;;;0.90;99.90;;;;;;6252385;22;20011;-75
2024/01/16 08:04:09;;;;;;;13.75;3.60;;;0.90;99.90;;;;;;6278562;22;20444;-75
2024/01/16 08:06:34;;;;;;;13.32;3.80;;;0.90;99.90;;;;;;6278718;22;20079;-77
2024/01/16 08:09:00;;;;;;;12.13;4.32;;;0.90;99.90;;;;;;6278503;22;20090;-74
2024/01/16 08:11:26;;;;;;;13.32;2.63;;;1.00;99.90;;;;;;6278607;22;20444;-74
2024/01/16 08:13:51;;;;;;;11.40;3.60;;;1.00;99.90;;;;;;6277079;22;20388;-75
2024/01/16 08:16:17;;;;;;;12.40;5.20;;;1.00;99.90;;;;;;6277180;22;20016;-76
2024/01/16 08:18:43;;;;;;;12.73;4.25;;;1.00;99.90;;;;;;6276886;22;20344;-77
2024/01/16 08:21:08;;;;;;;12.98;4.22;;;1.00;99.90;;;;;;6276378;22;20016;-76
2024/01/16 08:23:34;;;;;;;10.73;3.20;;;1.00;99.90;;;;;;6276519;22;20073;-76
2024/01/16 08:26:00;;;;;;;10.63;4.28;;;1.00;99.90;;;;;;6278462;22;20015;-77
2024/01/16 08:28:27;;;;;;;10.77;3.53;;;1.00;99.90;;;;;;6279873;22;20087;-75
2024/01/16 08:30:52;;;;;;;12.32;4.57;;;1.10;99.90;;;;;;6278795;22;20018;-72
2024/01/16 08:33:18;;;;;;;12.05;4.25;;;1.10;99.90;;;;;;6278108;22;20453;-74
2024/01/16 08:35:44;;;;;;;11.05;3.15;;;1.10;99.90;;;;;;6276679;22;20015;-75
2024/01/16 08:38:10;;;;;;;9.50;3.05;;;1.10;99.90;;;;;;6276426;22;20016;-76
2024/01/16 08:40:36;;;;;;;11.98;2.92;;;1.10;99.90;;;;;;6276055;22;20345;-75
2024/01/16 08:43:03;;;;;;;9.05;2.97;;;1.10;99.90;;;;;;6277963;22;20007;-75
2024/01/16 08:45:29;;;;;;;10.30;2.30;;;1.10;99.90;;;;;;6276973;22;20139;-74
2024/01/16 08:47:55;;;;;;;8.80;2.35;;;1.00;99.90;;;;;;6276275;22;20015;-73
2024/01/16 08:50:20;;;;;;;7.80;2.40;;;1.00;99.90;;;;;;6277213;22;20019;-74
2024/01/16 08:52:46;;;;;;;6.72;1.95;;;1.10;99.90;;;;;;6276270;22;20341;-74
2024/01/16 08:55:12;;;;;;;12.30;2.13;;;1.10;99.90;;;;;;6276361;22;20095;-73
2024/01/16 08:57:37;;;;;;;8.52;2.63;;;1.10;99.90;;;;;;6276363;22;20430;-74
2024/01/16 09:00:08;;;;;;;6.35;2.50;;;1.20;99.90;;;;;;6275784;22;20022;-75
2024/01/16 09:02:37;;;;;;;6.90;1.65;;;1.20;99.90;;;;;;6248425;22;20008;-76
2024/01/16 09:05:03;;;;;;;7.78;2.55;;;1.20;99.90;;;;;;6220233;23;20461;-79
2024/01/16 09:07:29;;;;;;;6.18;2.13;;;1.30;99.90;;;;;;6220197;23;20019;-73
2024/01/16 09:09:54;;;;;;;8.95;2.67;;;1.30;99.90;;;;;;6247458;23;20047;-74
2024/01/16 09:12:20;;;;;;;11.02;3.33;;;1.30;99.90;;;;;;6220179;23;20023;-76
2024/01/16 09:14:46;;;;;;;9.98;3.72;;;1.30;99.90;;;;;;6220262;23;20016;-74
2024/01/16 09:17:12;;;;;;;12.57;4.47;;;1.40;99.90;;;;;;6219967;23;20016;-72
2024/01/16 09:19:37;;;;;;;13.65;4.72;;;1.40;99.90;;;;;;6246947;23;20108;-75
2024/01/16 09:22:03;;;;;;;9.30;4.22;;;1.40;99.90;;;;;;6220049;23;20095;-75
2024/01/16 09:24:29;;;;;;;14.32;5.68;;;1.40;99.90;;;;;;6219988;23;20088;-75
2024/01/16 09:26:55;;;;;;;16.08;5.47;;;1.40;99.90;;;;;;6219981;23;20012;-74
2024/01/16 09:29:22;;;;;;;14.73;5.15;;;1.40;99.90;;;;;;6247227;23;20010;-76
2024/01/16 09:31:48;;;;;;;17.33;6.07;;;1.50;99.90;;;;;;6247082;22;20016;-75
2024/01/16 09:34:14;;;;;;;15.68;5.32;;;1.50;99.90;;;;;;6247223;23;20015;-73
2024/01/16 09:36:40;;;;;;;17.42;5.57;;;1.50;99.90;;;;;;6247326;23;20023;-74
2024/01/16 09:39:13;;;;;;;14.80;5.78;;;1.50;99.90;;;;;;6220269;23;20020;-76
2024/01/16 09:41:39;;;;;;;16.27;6.93;;;1.60;99.90;;;;;;6246723;22;20012;-76
2024/01/16 09:44:06;;;;;;;16.77;7.22;;;1.60;99.90;;;;;;6220043;23;20095;-75
2024/01/16 09:46:34;;;;;;;19.50;6.30;;;1.60;99.90;;;;;;6219952;23;20107;-75
2024/01/16 09:49:00;;;;;;;18.17;6.05;;;1.60;99.90;;;;;;6219725;23;20012;-74
2024/01/16 09:51:26;;;;;;;11.75;4.95;;;1.60;99.90;;;;;;6219788;23;20020;-75
2024/01/16 09:53:52;;;;;;;19.75;6.13;;;1.60;99.90;;;;;;6246856;23;20018;-73
2024/01/16 09:56:22;;;;;;;12.90;5.43;;;1.60;99.90;;;;;;6246564;23;20446;-74
2024/01/16 09:58:49;;;;;;;13.98;5.55;;;1.70;99.90;;;;;;6246971;23;20095;-74
2024/01/16 10:01:16;;;;;;;20.27;6.72;;;1.60;99.90;;;;;;6239263;22;20015;-71
2024/01/16 10:03:45;;;;;;;15.07;5.82;;;1.60;99.90;;;;;;6276710;22;20332;-76
2024/01/16 10:06:11;;;;;;;13.90;4.60;;;1.60;99.90;;;;;;6277544;22;20008;-72
2024/01/16 10:08:37;;;;;;;10.88;4.60;;;1.60;99.90;;;;;;6277234;22;20073;-75
2024/01/16 10:11:04;;;;;;;7.03;3.33;;;1.60;99.90;;;;;;6275366;22;20017;-74
2024/01/16 10:13:31;;;;;;;11.38;3.70;;;1.60;99.90;;;;;;6250118;22;20012;-74
2024/01/16 10:15:57;;;;;;;14.23;4.32;;;1.60;99.90;;;;;;6275594;22;20011;-74
2024/01/16 10:18:26;;;;;;;7.78;3.20;;;1.50;99.90;;;;;;6277457;22;20011;-74
2024/01/16 10:20:53;;;;;;;8.07;3.53;;;1.60;99.90;;;;;;6275137;22;20023;-75
2024/01/16 10:23:25;;;;;;;12.77;2.95;;;1.50;99.90;;;;;;6275637;22;20012;-71
2024/01/16 10:26:10;;;;;;;9.93;2.22;;;1.50;99.90;;;;;;6275610;22;20054;-72
2024/01/16 10:28:38;;;;;;;10.13;2.85;;;1.60;99.90;;;;;;6275150;22;20341;-74
2024/01/16 10:31:05;;;;;;;11.65;2.80;;;1.60;99.90;;;;;;6249777;22;20392;-73
2024/01/16 10:33:31;;;;;;;9.63;3.72;;;1.50;99.90;;;;;;6275812;22;20043;-74
2024/01/16 10:36:13;;;;;;;7.13;1.13;;;1.50;99.90;;;;;;6277021;22;20057;-76
2024/01/16 10:38:40;;;;;;;5.63;1.92;;;1.50;99.90;;;;;;6275404;22;20011;-76
2024/01/16 10:41:17;;;;;;;3.38;1.05;;;1.50;99.90;;;;;;6275208;22;20069;-75
2024/01/16 10:43:44;;;;;;;3.88;1.77;;;1.40;99.90;;;;;;6275482;22;20026;-72
2024/01/16 10:46:12;;;;;;;6.75;1.70;;;1.30;99.90;;;;;;6276974;22;20007;-76
2024/01/16 10:48:39;;;;;;;7.10;1.20;;;1.30;99.90;;;;;;6277175;22;20353;-73
2024/01/16 10:51:06;;;;;;;9.70;2.08;;;1.30;99.90;;;;;;6276713;22;20015;-73
2024/01/16 10:53:33;;;;;;;9.05;1.98;;;1.20;99.90;;;;;;6275140;22;20465;-74
2024/01/16 10:56:01;;;;;;;9.20;1.23;;;1.10;99.90;;;;;;6275205;22;20026;-76
2024/01/16 10:58:31;;;;;;;6.72;1.70;;;1.10;99.90;;;;;;6275350;22;20008;-75
2024/01/16 11:00:59;;;;;;;9.32;2.78;;;1.10;99.90;;;;;;6268379;22;20350;-73
2024/01/16 11:03:40;;;;;;;6.80;1.38;;;1.10;99.90;;;;;;6245817;23;20019;-72
2024/01/16 11:06:10;;;;;;;5.93;1.05;;;1.00;99.90;;;;;;6246342;23;20012;-75
2024/01/16 11:08:40;;;;;;;6.88;1.85;;;1.00;99.90;;;;;;6219064;23;20146;-72
2024/01/16 11:11:07;;;;;;;4.82;1.42;;;1.00;99.90;;;;;;6246534;22;20065;-74
2024/01/16 11:13:34;;;;;;;8.45;1.73;;;1.10;99.90;;;;;;6219111;23;20083;-74
2024/01/16 11:16:04;;;;;;;8.82;2.40;;;1.10;99.90;;;;;;6219183;23;20066;-73
2024/01/16 11:18:32;;;;;;;9.15;1.77;;;1.10;99.90;;;;;;6219219;23;20020;-76
2024/01/16 11:20:59;;;;;;;10.85;2.17;;;1.10;99.90;;;;;;6219177;23;20023;-72
2024/01/16 11:23:25;;;;;;;9.80;2.10;;;1.20;99.90;;;;;;6245859;23;20507;-75
2024/01/16 11:25:51;;;;;;;8.15;1.83;;;1.20;99.90;;;;;;6245847;23;20452;-74
2024/01/16 11:28:17;;;;;;;8.98;2.00;;;1.20;99.90;;;;;;6246712;23;20070;-76
2024/01/16 11:30:43;;;;;;;12.40;2.40;;;1.30;99.90;;;;;;6246241;22;20012;-74
2024/01/16 11:33:31;;;;;;;14.43;2.63;;;1.30;99.90;;;;;;6222326;23;20012;-72
2024/01/16 11:35:57;;;;;;;4.75;1.52;;;1.30;99.90;;;;;;6226873;23;20012;-72
2024/01/16 11:38:26;;;;;;;5.57;2.15;;;1.40;99.90;;;;;;6248926;23;20016;-74
2024/01/16 11:40:56;;;;;;;10.48;2.42;;;1.40;99.90;;;;;;6221167;23;20338;-73
2024/01/16 11:43:34;;;;;;;9.38;2.60;;;1.50;99.90;;;;;;6196421;23;20012;-74
2024/01/16 11:46:01;;;;;;;10.27;2.40;;;1.50;99.90;;;;;;6248415;23;20019;-75
2024/01/16 11:48:27;;;;;;;11.95;2.72;;;1.60;99.90;;;;;;6248018;23;20334;-76
2024/01/16 11:50:53;;;;;;;14.23;2.42;;;1.60;99.90;;;;;;6248029;22;20012;-72
2024/01/16 11:53:39;;;;;;;11.57;3.03;;;1.60;99.90;;;;;;6196093;23;20174;-73
2024/01/16 11:56:19;;;;;;;7.75;2.55;;;1.60;99.90;;;;;;6221080;23;20019;-75
2024/01/16 11:59:06;;;;;;;10.13;2.47;;;1.60;99.90;;;;;;6248290;23;20327;-75
2024/01/16 12:01:35;;;;;;;7.68;2.78;;;1.60;99.90;;;;;;6247537;22;20338;-73
2024/01/16 12:04:07;;;;;;;10.82;3.05;;;1.60;99.90;;;;;;6220960;23;20035;-75
2024/01/16 12:06:40;;;;;;;12.63;3.67;;;1.60;99.90;;;;;;6248156;23;20014;-72
2024/01/16 12:09:15;;;;;;;12.93;3.22;;;1.50;99.90;;;;;;6221015;23;20016;-73
2024/01/16 12:11:45;;;;;;;12.80;3.85;;;1.50;99.90;;;;;;6221213;23;20008;-74
2024/01/16 12:14:14;;;;;;;11.90;4.82;;;1.50;99.90;;;;;;6221144;23;20078;-72
2024/01/16 12:16:40;;;;;;;7.95;3.75;;;1.50;99.90;;;;;;6220863;23;20027;-74
2024/01/16 12:19:09;;;;;;;20.27;4.43;;;1.50;99.90;;;;;;6220740;23;20016;-75
2024/01/16 12:21:41;;;;;;;8.30;3.92;;;1.50;99.90;;;;;;6220433;23;20020;-75
2024/01/16 12:24:07;;;;;;;10.20;4.78;;;1.50;99.90;;;;;;6220737;23;20044;-73
2024/01/16 12:26:33;;;;;;;9.23;4.28;;;1.60;99.90;;;;;;6221789;23;20016;-75
2024/01/16 12:28:59;;;;;;;15.43;4.43;;;1.60;99.90;;;;;;6247795;23;20330;-75
2024/01/16 12:31:25;;;;;;;11.18;4.55;;;1.60;99.90;;;;;;6220813;23;20015;-77
2024/01/16 12:33:51;;;;;;;12.20;3.60;;;1.70;99.90;;;;;;6220705;23;20012;-75
2024/01/16 12:36:17;;;;;;;15.35;4.50;;;1.80;99.90;;;;;;6220714;23;20012;-74
2024/01/16 12:38:43;;;;;;;12.40;4.50;;;1.80;99.90;;;;;;6220761;23;20044;-76
2024/01/16 12:41:11;;;;;;;10.85;3.95;;;1.80;99.90;;;;;;6247772;22;20020;-76
2024/01/16 12:43:37;;;;;;;18.33;5.03;;;1.90;99.90;;;;;;6220345;23;20030;-77
2024/01/16 12:46:03;;;;;;;11.40;4.80;;;1.90;99.90;;;;;;6247791;23;20044;-77
2024/01/16 12:48:29;;;;;;;20.65;4.60;;;2.00;99.90;;;;;;6195211;23;20044;-74
2024/01/16 12:51:03;;;;;;;10.40;4.70;;;2.20;99.90;;;;;;6220496;23;20020;-76
2024/01/16 12:53:31;;;;;;;11.07;3.40;;;2.50;99.90;;;;;;6195655;23;20465;-78
2024/01/16 12:56:02;;;;;;;10.77;4.40;;;2.70;99.90;;;;;;6220528;23;20019;-72
2024/01/16 12:58:37;;;;;;;15.52;4.65;;;2.80;99.90;;;;;;6220497;23;20024;-73
2024/01/16 13:01:26;;;;;;;13.93;5.13;;;2.80;99.90;;;;;;6247033;22;20008;-76
2024/01/16 13:03:52;;;;;;;17.35;5.90;;;2.70;99.90;;;;;;6247542;23;20004;-74
2024/01/16 13:06:22;;;;;;;10.68;4.65;;;2.90;99.90;;;;;;6247450;23;20036;-77
2024/01/16 13:08:48;;;;;;;15.18;4.60;;;3.00;99.90;;;;;;6220904;23;20015;-75
2024/01/16 13:11:20;;;;;;;14.23;4.40;;;3.10;99.90;;;;;;6220667;23;20143;-75
2024/01/16 13:13:51;;;;;;;12.50;5.28;;;3.20;99.90;;;;;;6222331;23;20113;-72
2024/01/16 13:16:17;;;;;;;14.25;4.45;;;3.20;99.90;;;;;;6222888;23;20012;-73
2024/01/16 13:18:43;;;;;;;18.05;5.95;;;3.30;99.90;;;;;;6221841;23;20341;-74
2024/01/16 13:21:09;;;;;;;14.13;3.45;;;3.50;99.90;;;;;;6247202;22;20019;-73
2024/01/16 13:23:35;;;;;;;10.77;2.70;;;3.60;99.90;;;;;;6247796;23;20012;-74
2024/01/16 13:26:04;;;;;;;10.90;3.20;;;3.70;99.90;;;;;;6247485;23;20027;-74
2024/01/16 13:28:30;;;;;;;9.38;3.17;;;3.70;99.90;;;;;;6220380;23;20315;-73
2024/01/16 13:30:56;;;;;;;9.23;2.80;;;3.80;99.90;;;;;;6247430;22;20016;-75
2024/01/16 13:33:26;;;;;;;8.48;2.97;;;3.70;99.90;;;;;;6220354;23;20023;-74
2024/01/16 13:35:54;;;;;;;7.20;2.22;;;3.50;99.90;;;;;;6247600;23;20008;-73
2024/01/16 13:38:20;;;;;;;11.88;3.42;;;3.20;99.90;;;;;;6247581;23;20008;-73
2024/01/16 13:40:46;;;;;;;12.05;4.00;;;3.00;99.90;;;;;;6220492;23;20012;-75
2024/01/16 13:43:12;;;;;;;7.55;2.22;;;2.80;99.90;;;;;;6220208;23;20019;-73
2024/01/16 13:45:38;;;;;;;7.95;2.35;;;2.70;99.90;;;;;;6220173;23;20074;-75
2024/01/16 13:48:06;;;;;;;11.23;2.95;;;2.50;99.90;;;;;;6220222;23;20008;-76
2024/01/16 13:50:33;;;;;;;24.65;3.65;;;2.40;99.90;;;;;;6219994;22;20440;-74
2024/01/16 13:52:59;;;;;;;4.65;1.73;;;2.30;99.90;;;;;;6220559;23;20342;-74
2024/01/16 13:55:25;;;;;;;12.00;4.07;;;2.20;99.90;;;;;;6247137;23;20016;-73
2024/01/16 13:57:50;;;;;;;11.57;2.78;;;2.10;99.90;;;;;;6220212;23;20015;-75
2024/01/16 14:00:17;;;;;;;13.82;2.70;;;2.10;99.90;;;;;;6246620;22;20137;-74
2024/01/16 14:02:47;;;;;;;14.95;3.75;;;2.00;99.90;;;;;;6247834;23;20102;-75
2024/01/16 14:05:20;;;;;;;13.73;2.80;;;2.00;99.90;;;;;;6247108;23;20008;-74
2024/01/16 14:07:51;;;;;;;8.00;2.40;;;2.00;99.90;;;;;;6247275;23;20012;-73
2024/01/16 14:10:19;;;;;;;7.63;1.98;;;2.10;99.90;;;;;;6247321;22;20432;-77
2024/01/16 14:12:46;;;;;;;7.53;3.05;;;2.20;99.90;;;;;;6220075;23;20381;-75
2024/01/16 14:15:16;;;;;;;9.02;3.10;;;2.40;99.90;;;;;;6246639;23;20031;-74
2024/01/16 14:17:46;;;;;;;6.93;1.90;;;2.50;99.90;;;;;;6247232;23;20015;-72
2024/01/16 14:20:13;;;;;;;12.70;2.60;;;2.40;99.90;;;;;;6220132;23;20016;-74
2024/01/16 14:22:39;;;;;;;8.43;2.30;;;2.30;99.90;;;;;;6246979;22;20015;-76
2024/01/16 14:25:12;;;;;;;9.43;2.33;;;2.20;99.90;;;;;;6220294;23;20012;-71
2024/01/16 14:27:42;;;;;;;9.52;2.00;;;2.10;99.90;;;;;;6195014;23;20008;-72
2024/01/16 14:30:13;;;;;;;6.93;1.85;;;2.00;99.90;;;;;;6246638;23;20016;-72
2024/01/16 14:32:44;;;;;;;7.57;1.90;;;2.00;99.90;;;;;;6247098;22;20083;-75
2024/01/16 14:35:11;;;;;;;5.50;1.40;;;1.90;99.90;;;;;;6247084;23;20087;-74
2024/01/16 14:37:43;;;;;;;9.60;2.28;;;1.90;99.90;;;;;;6194626;23;20016;-74
2024/01/16 14:40:20;;;;;;;7.32;2.10;;;1.90;99.90;;;;;;6246264;23;20012;-75
2024/01/16 14:42:53;;;;;;;10.93;2.47;;;1.90;99.90;;;;;;6219683;23;20020;-74
2024/01/16 14:45:23;;;;;;;7.15;1.98;;;1.90;99.90;;;;;;6246935;23;20012;-74
2024/01/16 14:47:50;;;;;;;5.55;2.10;;;1.80;99.90;;;;;;6194688;23;20342;-72
2024/01/16 14:50:17;;;;;;;5.63;1.83;;;1.80;99.90;;;;;;6246183;22;20016;-74
2024/01/16 14:52:50;;;;;;;9.15;2.10;;;1.80;99.90;;;;;;6194279;23;20016;-73
2024/01/16 14:55:20;;;;;;;9.95;2.20;;;1.80;99.90;;;;;;6220192;23;20024;-73
2024/01/16 14:57:50;;;;;;;7.90;1.33;;;1.80;99.90;;;;;;6219402;23;20026;-74
2024/01/16 15:00:19;;;;;;;7.60;1.77;;;1.80;99.90;;;;;;6219321;22;20051;-74
2024/01/16 15:02:48;;;;;;;5.97;2.08;;;1.90;99.90;;;;;;6275635;22;20543;-74
2024/01/16 15:05:19;;;;;;;8.68;2.22;;;1.90;99.90;;;;;;6278775;22;20052;-75
2024/01/16 15:07:45;;;;;;;6.72;2.30;;;1.80;99.90;;;;;;6276300;22;20016;-75
2024/01/16 15:10:11;;;;;;;9.00;1.77;;;1.80;99.90;;;;;;6275078;22;20019;-75
2024/01/16 15:12:40;;;;;;;12.13;2.10;;;1.80;99.90;;;;;;6276835;22;20062;-72
2024/01/16 15:15:11;;;;;;;10.93;2.47;;;1.70;99.90;;;;;;6277330;22;20105;-75
2024/01/16 15:17:37;;;;;;;14.80;2.63;;;1.70;99.90;;;;;;6275554;22;20011;-75
2024/01/16 15:20:08;;;;;;;6.60;2.33;;;1.70;99.90;;;;;;6275056;22;20065;-71
2024/01/16 15:22:45;;;;;;;18.00;3.53;;;1.70;99.90;;;;;;6249564;22;20088;-73
2024/01/16 15:25:16;;;;;;;8.68;1.77;;;1.60;99.90;;;;;;6275298;22;20016;-71
2024/01/16 15:27:42;;;;;;;6.57;2.00;;;1.60;99.90;;;;;;6277098;22;20004;-73
2024/01/16 15:30:10;;;;;;;7.88;2.38;;;1.60;99.90;;;;;;6276786;22;20011;-72
2024/01/16 15:32:36;;;;;;;9.23;2.22;;;1.60;99.90;;;;;;6277204;22;20040;-72
2024/01/16 15:35:06;;;;;;;6.53;1.70;;;1.60;99.90;;;;;;6275122;22;20067;-73
2024/01/16 15:37:35;;;;;;;7.85;2.50;;;1.60;99.90;;;;;;6274919;22;20022;-74
2024/01/16 15:40:01;;;;;;;4.95;2.25;;;1.70;99.90;;;;;;6276982;22;20054;-72
2024/01/16 15:42:27;;;;;;;8.35;1.88;;;1.60;99.90;;;;;;6275410;22;20016;-74
2024/01/16 15:44:55;;;;;;;9.40;2.10;;;1.70;99.90;;;;;;6275153;22;20387;-75
2024/01/16 15:47:21;;;;;;;10.32;1.90;;;1.60;99.90;;;;;;6275225;22;20402;-74
2024/01/16 15:49:47;;;;;;;4.90;1.80;;;1.60;99.90;;;;;;6276491;22;20012;-74
2024/01/16 15:52:13;;;;;;;6.60;1.90;;;1.60;99.90;;;;;;6274881;22;20008;-73
2024/01/16 15:54:40;;;;;;;8.85;2.08;;;1.60;99.90;;;;;;6277254;22;20007;-76
2024/01/16 15:57:06;;;;;;;3.95;1.75;;;1.60;99.90;;;;;;6276701;22;20016;-75
2024/01/16 15:59:31;;;;;;;6.05;1.45;;;1.60;99.90;;;;;;6275014;22;20015;-72
2024/01/16 16:01:57;;;;;;;6.45;1.90;;;1.60;99.90;;;;;;6254965;22;20103;-75
2024/01/16 16:04:23;;;;;;;7.88;1.92;;;1.50;99.90;;;;;;6219262;23;20034;-75
2024/01/16 16:06:49;;;;;;;5.95;1.80;;;1.50;99.90;;;;;;6246291;23;20005;-75
2024/01/16 16:09:16;;;;;;;4.85;1.70;;;1.50;99.90;;;;;;6245773;23;20520;-72
2024/01/16 16:11:44;;;;;;;18.30;2.53;;;1.40;99.90;;;;;;6246236;22;20035;-76
2024/01/16 16:14:10;;;;;;;9.50;1.80;;;1.40;99.90;;;;;;6246428;23;20094;-76
2024/01/16 16:16:36;;;;;;;5.68;1.80;;;1.40;99.90;;;;;;6219291;23;20452;-72
2024/01/16 16:19:03;;;;;;;8.95;2.15;;;1.30;99.90;;;;;;6220650;23;20020;-72
2024/01/16 16:21:30;;;;;;;4.97;1.73;;;1.30;99.90;;;;;;6247956;22;20015;-73
2024/01/16 16:23:55;;;;;;;7.10;1.65;;;1.30;99.90;;;;;;6220885;23;20319;-75
2024/01/16 16:26:38;;;;;;;8.15;2.10;;;1.30;99.90;;;;;;6248439;23;20080;-75
2024/01/16 16:29:05;;;;;;;7.28;2.00;;;1.30;99.90;;;;;;6221164;23;20320;-73
2024/01/16 16:31:34;;;;;;;8.40;1.67;;;1.30;99.90;;;;;;6247980;22;20050;-72
2024/01/16 16:34:04;;;;;;;7.95;1.83;;;1.20;99.90;;;;;;6248047;23;20023;-76
2024/01/16 16:36:30;;;;;;;8.93;1.90;;;1.20;99.90;;;;;;6247568;23;20342;-74
2024/01/16 16:38:57;;;;;;;8.80;1.90;;;1.20;99.90;;;;;;6220815;23;20020;-75
2024/01/16 16:41:23;;;;;;;6.90;1.58;;;1.20;99.90;;;;;;6220654;23;20044;-73
2024/01/16 16:43:49;;;;;;;7.20;1.80;;;1.20;99.90;;;;;;6220836;23;20016;-73
2024/01/16 16:46:19;;;;;;;5.07;1.83;;;1.10;99.90;;;;;;6247974;23;20446;-74
2024/01/16 16:48:46;;;;;;;4.90;1.67;;;1.10;99.90;;;;;;6220903;23;20389;-74
2024/01/16 16:51:13;;;;;;;5.00;1.40;;;1.00;99.90;;;;;;6248020;22;20024;-74
2024/01/16 16:53:40;;;;;;;11.63;1.67;;;1.00;99.90;;;;;;6247958;23;20008;-73